sensor_id;sensor_type;location;lat;lon;timestamp;temperature;humidity
17346;DHT22;8790;53.590;10.002;2022-11-15T00:00:29;7.90;99.90
17346;DHT22;8790;53.590;10.002;2022-11-15T00:03:22;7.90;99.90
17346;DHT22;8790;53.590;10.002;2022-11-15T00:06:14;7.80;99.90
17346;DHT22;8790;53.590;10.002;2022-11-15T00:09:05;7.80;99.90
17346;DHT22;8790;53.590;10.002;2022-11-15T00:11:55;7.80;99.90
17346;DHT22;8790;53.590;10.002;2022-11-15T00:14:46;7.80;99.90
17346;DHT22;8790;53.590;10.002;2022-11-15T00:17:36;7.80;99.90
17346;DHT22;8790;53.590;10.002;2022-11-15T00:20:27;7.70;99.90
17346;DHT22;8790;53.590;10.002;2022-11-15T00:23:19;7.70;99.90
17346;DHT22;8790;53.590;10.002;2022-11-15T00:26:11;7.80;99.90
17346;DHT22;8790;53.590;10.002;2022-11-15T00:29:02;7.80;99.90
17346;DHT22;8790;53.590;10.002;2022-11-15T00:31:52;7.80;99.90
17346;DHT22;8790;53.590;10.002;2022-11-15T00:34:43;7.80;99.90
17346;DHT22;8790;53.590;10.002;2022-11-15T00:37:33;7.80;99.90
17346;DHT22;8790;53.590;10.002;2022-11-15T00:40:25;7.80;99.90
17346;DHT22;8790;53.590;10.002;2022-11-15T00:43:15;7.90;99.90
17346;DHT22;8790;53.590;10.002;2022-11-15T00:46:06;7.90;99.90
17346;DHT22;8790;53.590;10.002;2022-11-15T00:48:57;7.90;99.90
17346;DHT22;8790;53.590;10.002;2022-11-15T00:51:47;7.90;99.90
17346;DHT22;8790;53.590;10.002;2022-11-15T00:54:38;7.90;99.90
17346;DHT22;8790;53.590;10.002;2022-11-15T00:57:30;7.90;99.90
17346;DHT22;8790;53.590;10.002;2022-11-15T01:00:20;7.90;99.90
17346;DHT22;8790;53.590;10.002;2022-11-15T01:03:11;7.90;99.90
17346;DHT22;8790;53.590;10.002;2022-11-15T01:06:02;7.90;99.90
17346;DHT22;8790;53.590;10.002;2022-11-15T01:08:52;7.90;99.90
17346;DHT22;8790;53.590;10.002;2022-11-15T01:11:43;7.90;99.90
17346;DHT22;8790;53.590;10.002;2022-11-15T01:14:35;7.90;99.90
17346;DHT22;8790;53.590;10.002;2022-11-15T01:17:26;7.90;99.90
17346;DHT22;8790;53.590;10.002;2022-11-15T01:20:16;7.90;99.90
17346;DHT22;8790;53.590;10.002;2022-11-15T01:23:08;7.90;99.90
17346;DHT22;8790;53.590;10.002;2022-11-15T01:25:59;7.90;99.90
17346;DHT22;8790;53.590;10.002;2022-11-15T01:28:49;7.90;99.90
17346;DHT22;8790;53.590;10.002;2022-11-15T01:31:41;7.90;99.90
17346;DHT22;8790;53.590;10.002;2022-11-15T01:34:31;7.90;99.90
17346;DHT22;8790;53.590;10.002;2022-11-15T01:37:22;7.80;99.90
17346;DHT22;8790;53.590;10.002;2022-11-15T01:40:13;7.80;99.90
17346;DHT22;8790;53.590;10.002;2022-11-15T01:43:19;7.80;99.90
17346;DHT22;8790;53.590;10.002;2022-11-15T01:46:20;7.80;99.90
17346;DHT22;8790;53.590;10.002;2022-11-15T01:49:16;7.80;99.90
17346;DHT22;8790;53.590;10.002;2022-11-15T01:52:09;7.70;99.90
17346;DHT22;8790;53.590;10.002;2022-11-15T01:55:05;7.80;99.90
17346;DHT22;8790;53.590;10.002;2022-11-15T01:57:59;7.70;99.90
17346;DHT22;8790;53.590;10.002;2022-11-15T02:00:51;7.70;99.90
17346;DHT22;8790;53.590;10.002;2022-11-15T02:03:48;7.70;99.90
17346;DHT22;8790;53.590;10.002;2022-11-15T02:06:41;7.70;99.90
17346;DHT22;8790;53.590;10.002;2022-11-15T02:09:32;7.70;99.90
17346;DHT22;8790;53.590;10.002;2022-11-15T02:12:23;7.60;99.90
17346;DHT22;8790;53.590;10.002;2022-11-15T02:15:13;7.60;99.90
17346;DHT22;8790;53.590;10.002;2022-11-15T02:18:11;7.60;99.90
17346;DHT22;8790;53.590;10.002;2022-11-15T02:21:18;7.60;99.90
17346;DHT22;8790;53.590;10.002;2022-11-15T02:24:45;7.50;99.90
17346;DHT22;8790;53.590;10.002;2022-11-15T02:27:55;7.50;99.90
17346;DHT22;8790;53.590;10.002;2022-11-15T02:30:53;7.50;99.90
17346;DHT22;8790;53.590;10.002;2022-11-15T02:33:50;7.50;99.90
17346;DHT22;8790;53.590;10.002;2022-11-15T02:36:47;7.50;99.90
17346;DHT22;8790;53.590;10.002;2022-11-15T02:39:44;7.50;99.90
17346;DHT22;8790;53.590;10.002;2022-11-15T02:42:41;7.50;99.90
17346;DHT22;8790;53.590;10.002;2022-11-15T02:46:00;7.50;99.90
17346;DHT22;8790;53.590;10.002;2022-11-15T02:48:52;7.50;99.90
17346;DHT22;8790;53.590;10.002;2022-11-15T02:51:44;7.50;99.90
17346;DHT22;8790;53.590;10.002;2022-11-15T02:54:35;7.50;99.90
17346;DHT22;8790;53.590;10.002;2022-11-15T02:57:35;7.50;99.90
17346;DHT22;8790;53.590;10.002;2022-11-15T03:00:29;7.50;99.90
17346;DHT22;8790;53.590;10.002;2022-11-15T03:03:52;7.50;99.90
17346;DHT22;8790;53.590;10.002;2022-11-15T03:06:51;7.50;99.90
17346;DHT22;8790;53.590;10.002;2022-11-15T03:09:47;7.50;99.90
17346;DHT22;8790;53.590;10.002;2022-11-15T03:12:45;7.50;99.90
17346;DHT22;8790;53.590;10.002;2022-11-15T03:15:39;7.40;99.90
17346;DHT22;8790;53.590;10.002;2022-11-15T03:18:33;7.40;99.90
17346;DHT22;8790;53.590;10.002;2022-11-15T03:21:28;7.40;99.90
17346;DHT22;8790;53.590;10.002;2022-11-15T03:24:20;7.40;99.90
17346;DHT22;8790;53.590;10.002;2022-11-15T03:27:14;7.40;99.90
17346;DHT22;8790;53.590;10.002;2022-11-15T03:30:07;7.40;99.90
17346;DHT22;8790;53.590;10.002;2022-11-15T03:32:58;7.40;99.90
17346;DHT22;8790;53.590;10.002;2022-11-15T03:35:51;7.40;99.90
17346;DHT22;8790;53.590;10.002;2022-11-15T03:38:45;7.40;99.90
17346;DHT22;8790;53.590;10.002;2022-11-15T03:41:40;7.40;99.90
17346;DHT22;8790;53.590;10.002;2022-11-15T03:44:37;7.40;99.90
17346;DHT22;8790;53.590;10.002;2022-11-15T03:47:33;7.40;99.90
17346;DHT22;8790;53.590;10.002;2022-11-15T03:50:25;7.40;99.90
17346;DHT22;8790;53.590;10.002;2022-11-15T03:53:16;7.50;99.90
17346;DHT22;8790;53.590;10.002;2022-11-15T03:56:08;7.50;99.90
17346;DHT22;8790;53.590;10.002;2022-11-15T03:58:58;7.50;99.90
17346;DHT22;8790;53.590;10.002;2022-11-15T04:01:49;7.40;99.90
17346;DHT22;8790;53.590;10.002;2022-11-15T04:04:40;7.40;99.90
17346;DHT22;8790;53.590;10.002;2022-11-15T04:07:30;7.50;99.90
17346;DHT22;8790;53.590;10.002;2022-11-15T04:10:20;7.50;99.90
17346;DHT22;8790;53.590;10.002;2022-11-15T04:13:12;7.50;99.90
17346;DHT22;8790;53.590;10.002;2022-11-15T04:16:03;7.50;99.90
17346;DHT22;8790;53.590;10.002;2022-11-15T04:18:53;7.50;99.90
17346;DHT22;8790;53.590;10.002;2022-11-15T04:21:57;7.50;99.90
17346;DHT22;8790;53.590;10.002;2022-11-15T04:25:06;7.50;99.90
17346;DHT22;8790;53.590;10.002;2022-11-15T04:27:56;7.50;99.90
17346;DHT22;8790;53.590;10.002;2022-11-15T04:30:48;7.50;99.90
17346;DHT22;8790;53.590;10.002;2022-11-15T04:33:38;7.50;99.90
17346;DHT22;8790;53.590;10.002;2022-11-15T04:36:29;7.50;99.90
17346;DHT22;8790;53.590;10.002;2022-11-15T04:39:37;7.50;99.90
17346;DHT22;8790;53.590;10.002;2022-11-15T04:42:27;7.50;99.90
17346;DHT22;8790;53.590;10.002;2022-11-15T04:45:18;7.50;99.90
17346;DHT22;8790;53.590;10.002;2022-11-15T04:48:10;7.50;99.90
17346;DHT22;8790;53.590;10.002;2022-11-15T04:51:00;7.50;99.90
17346;DHT22;8790;53.590;10.002;2022-11-15T04:53:51;7.50;99.90
17346;DHT22;8790;53.590;10.002;2022-11-15T04:56:41;7.50;99.90
17346;DHT22;8790;53.590;10.002;2022-11-15T04:59:31;7.50;99.90
17346;DHT22;8790;53.590;10.002;2022-11-15T05:02:22;7.50;99.90
17346;DHT22;8790;53.590;10.002;2022-11-15T05:05:14;7.50;99.90
17346;DHT22;8790;53.590;10.002;2022-11-15T05:08:03;7.50;99.90
17346;DHT22;8790;53.590;10.002;2022-11-15T05:10:54;7.60;99.90
17346;DHT22;8790;53.590;10.002;2022-11-15T05:13:44;7.60;99.90
17346;DHT22;8790;53.590;10.002;2022-11-15T05:16:35;7.60;99.90
17346;DHT22;8790;53.590;10.002;2022-11-15T05:19:26;7.70;99.90
17346;DHT22;8790;53.590;10.002;2022-11-15T05:22:18;7.60;99.90
17346;DHT22;8790;53.590;10.002;2022-11-15T05:25:08;7.70;99.90
17346;DHT22;8790;53.590;10.002;2022-11-15T05:27:59;7.70;99.90
17346;DHT22;8790;53.590;10.002;2022-11-15T05:30:49;7.70;99.90
17346;DHT22;8790;53.590;10.002;2022-11-15T05:33:40;7.70;99.90
17346;DHT22;8790;53.590;10.002;2022-11-15T05:36:34;7.70;99.90
17346;DHT22;8790;53.590;10.002;2022-11-15T05:39:27;7.70;99.90
17346;DHT22;8790;53.590;10.002;2022-11-15T05:42:17;7.80;99.90
17346;DHT22;8790;53.590;10.002;2022-11-15T05:45:08;7.80;99.90
17346;DHT22;8790;53.590;10.002;2022-11-15T05:48:00;7.80;99.90
17346;DHT22;8790;53.590;10.002;2022-11-15T05:50:54;7.80;99.90
17346;DHT22;8790;53.590;10.002;2022-11-15T05:53:45;7.80;99.90
17346;DHT22;8790;53.590;10.002;2022-11-15T05:56:37;7.90;99.90
17346;DHT22;8790;53.590;10.002;2022-11-15T05:59:29;8.00;99.90
17346;DHT22;8790;53.590;10.002;2022-11-15T06:02:19;8.00;99.90
17346;DHT22;8790;53.590;10.002;2022-11-15T06:05:10;8.00;99.90
17346;DHT22;8790;53.590;10.002;2022-11-15T06:08:00;8.00;99.90
17346;DHT22;8790;53.590;10.002;2022-11-15T06:10:51;8.00;99.90
17346;DHT22;8790;53.590;10.002;2022-11-15T06:13:42;8.00;99.90
17346;DHT22;8790;53.590;10.002;2022-11-15T06:16:33;8.10;99.90
17346;DHT22;8790;53.590;10.002;2022-11-15T06:19:24;8.10;99.90
17346;DHT22;8790;53.590;10.002;2022-11-15T06:22:14;8.10;99.90
17346;DHT22;8790;53.590;10.002;2022-11-15T06:25:05;8.10;99.90
17346;DHT22;8790;53.590;10.002;2022-11-15T06:27:57;8.10;99.90
17346;DHT22;8790;53.590;10.002;2022-11-15T06:30:49;8.20;99.90
17346;DHT22;8790;53.590;10.002;2022-11-15T06:33:39;8.20;99.90
17346;DHT22;8790;53.590;10.002;2022-11-15T06:36:30;8.20;99.90
17346;DHT22;8790;53.590;10.002;2022-11-15T06:39:20;8.20;99.90
17346;DHT22;8790;53.590;10.002;2022-11-15T06:42:11;8.30;99.90
17346;DHT22;8790;53.590;10.002;2022-11-15T06:45:01;8.30;99.90
17346;DHT22;8790;53.590;10.002;2022-11-15T06:47:53;8.30;99.90
17346;DHT22;8790;53.590;10.002;2022-11-15T06:50:50;8.30;99.90
17346;DHT22;8790;53.590;10.002;2022-11-15T06:53:40;8.30;99.90
17346;DHT22;8790;53.590;10.002;2022-11-15T06:56:31;8.30;99.90
17346;DHT22;8790;53.590;10.002;2022-11-15T06:59:21;8.40;99.90
17346;DHT22;8790;53.590;10.002;2022-11-15T07:02:12;8.40;99.90
17346;DHT22;8790;53.590;10.002;2022-11-15T07:05:04;8.40;99.90
17346;DHT22;8790;53.590;10.002;2022-11-15T07:07:56;8.40;99.90
17346;DHT22;8790;53.590;10.002;2022-11-15T07:10:47;8.40;99.90
17346;DHT22;8790;53.590;10.002;2022-11-15T07:13:38;8.40;99.90
17346;DHT22;8790;53.590;10.002;2022-11-15T07:16:28;8.50;99.90
17346;DHT22;8790;53.590;10.002;2022-11-15T07:19:18;8.50;99.90
17346;DHT22;8790;53.590;10.002;2022-11-15T07:22:10;8.50;99.90
17346;DHT22;8790;53.590;10.002;2022-11-15T07:25:01;8.50;99.90
17346;DHT22;8790;53.590;10.002;2022-11-15T07:27:54;8.50;99.90
17346;DHT22;8790;53.590;10.002;2022-11-15T07:30:45;8.50;99.90
17346;DHT22;8790;53.590;10.002;2022-11-15T07:33:36;8.50;99.90
17346;DHT22;8790;53.590;10.002;2022-11-15T07:36:26;8.50;99.90
17346;DHT22;8790;53.590;10.002;2022-11-15T07:39:18;8.60;99.90
17346;DHT22;8790;53.590;10.002;2022-11-15T07:42:08;8.60;99.90
17346;DHT22;8790;53.590;10.002;2022-11-15T07:45:17;8.60;99.90
17346;DHT22;8790;53.590;10.002;2022-11-15T07:48:07;8.60;99.90
17346;DHT22;8790;53.590;10.002;2022-11-15T07:50:58;8.60;99.90
17346;DHT22;8790;53.590;10.002;2022-11-15T07:53:48;8.60;99.90
17346;DHT22;8790;53.590;10.002;2022-11-15T07:56:40;8.60;99.90
17346;DHT22;8790;53.590;10.002;2022-11-15T07:59:30;8.60;99.90
17346;DHT22;8790;53.590;10.002;2022-11-15T08:02:21;8.60;99.90
17346;DHT22;8790;53.590;10.002;2022-11-15T08:05:12;8.60;99.90
17346;DHT22;8790;53.590;10.002;2022-11-15T08:08:02;8.60;99.90
17346;DHT22;8790;53.590;10.002;2022-11-15T08:10:53;8.60;99.90
17346;DHT22;8790;53.590;10.002;2022-11-15T08:13:45;8.60;99.90
17346;DHT22;8790;53.590;10.002;2022-11-15T08:16:35;8.60;99.90
17346;DHT22;8790;53.590;10.002;2022-11-15T08:19:25;8.60;99.90
17346;DHT22;8790;53.590;10.002;2022-11-15T08:22:16;8.70;99.90
17346;DHT22;8790;53.590;10.002;2022-11-15T08:25:07;8.60;99.90
17346;DHT22;8790;53.590;10.002;2022-11-15T08:27:59;8.70;99.90
17346;DHT22;8790;53.590;10.002;2022-11-15T08:30:51;8.70;99.90
17346;DHT22;8790;53.590;10.002;2022-11-15T08:33:41;8.70;99.90
17346;DHT22;8790;53.590;10.002;2022-11-15T08:36:32;8.70;99.90
17346;DHT22;8790;53.590;10.002;2022-11-15T08:39:22;8.70;99.90
17346;DHT22;8790;53.590;10.002;2022-11-15T08:42:12;8.70;99.90
17346;DHT22;8790;53.590;10.002;2022-11-15T08:45:04;8.70;99.90
17346;DHT22;8790;53.590;10.002;2022-11-15T08:47:56;8.80;99.90
17346;DHT22;8790;53.590;10.002;2022-11-15T08:50:46;8.80;99.90
17346;DHT22;8790;53.590;10.002;2022-11-15T08:53:37;8.80;99.90
17346;DHT22;8790;53.590;10.002;2022-11-15T08:56:27;8.80;99.90
17346;DHT22;8790;53.590;10.002;2022-11-15T08:59:18;8.80;99.90
17346;DHT22;8790;53.590;10.002;2022-11-15T09:02:11;8.80;99.90
17346;DHT22;8790;53.590;10.002;2022-11-15T09:05:04;8.80;99.90
17346;DHT22;8790;53.590;10.002;2022-11-15T09:07:55;8.90;99.90
17346;DHT22;8790;53.590;10.002;2022-11-15T09:10:45;8.90;99.90
17346;DHT22;8790;53.590;10.002;2022-11-15T09:13:36;8.90;99.90
17346;DHT22;8790;53.590;10.002;2022-11-15T09:16:27;8.90;99.90
17346;DHT22;8790;53.590;10.002;2022-11-15T09:19:17;8.90;99.90
17346;DHT22;8790;53.590;10.002;2022-11-15T09:22:09;8.90;99.90
17346;DHT22;8790;53.590;10.002;2022-11-15T09:25:00;8.90;99.90
17346;DHT22;8790;53.590;10.002;2022-11-15T09:27:50;8.90;99.90
17346;DHT22;8790;53.590;10.002;2022-11-15T09:30:41;9.00;99.90
17346;DHT22;8790;53.590;10.002;2022-11-15T09:33:31;9.00;99.90
17346;DHT22;8790;53.590;10.002;2022-11-15T09:36:22;9.00;99.90
17346;DHT22;8790;53.590;10.002;2022-11-15T09:39:14;9.00;99.90
17346;DHT22;8790;53.590;10.002;2022-11-15T09:42:23;9.00;99.90
17346;DHT22;8790;53.590;10.002;2022-11-15T09:45:20;9.10;99.90
17346;DHT22;8790;53.590;10.002;2022-11-15T09:51:38;9.20;99.90
17346;DHT22;8790;53.590;10.002;2022-11-15T09:54:25;9.20;99.90
17346;DHT22;8790;53.590;10.002;2022-11-15T09:57:06;9.20;99.90
17346;DHT22;8790;53.590;10.002;2022-11-15T09:59:53;9.20;99.90
17346;DHT22;8790;53.590;10.002;2022-11-15T10:02:41;9.30;99.90
17346;DHT22;8790;53.590;10.002;2022-11-15T10:05:18;9.30;99.90
17346;DHT22;8790;53.590;10.002;2022-11-15T10:07:54;9.30;99.90
17346;DHT22;8790;53.590;10.002;2022-11-15T10:10:32;9.30;99.90
17346;DHT22;8790;53.590;10.002;2022-11-15T10:13:13;9.30;99.90
17346;DHT22;8790;53.590;10.002;2022-11-15T10:15:47;9.40;99.90
17346;DHT22;8790;53.590;10.002;2022-11-15T10:18:24;9.40;99.90
17346;DHT22;8790;53.590;10.002;2022-11-15T10:21:10;9.40;99.90
17346;DHT22;8790;53.590;10.002;2022-11-15T10:23:44;9.50;99.90
17346;DHT22;8790;53.590;10.002;2022-11-15T10:26:17;9.50;99.90
17346;DHT22;8790;53.590;10.002;2022-11-15T10:28:49;9.50;99.90
17346;DHT22;8790;53.590;10.002;2022-11-15T10:31:22;9.50;99.90
17346;DHT22;8790;53.590;10.002;2022-11-15T10:34:03;9.60;99.90
17346;DHT22;8790;53.590;10.002;2022-11-15T10:36:44;9.60;99.90
17346;DHT22;8790;53.590;10.002;2022-11-15T10:39:16;9.60;99.90
17346;DHT22;8790;53.590;10.002;2022-11-15T10:41:49;9.70;99.90
17346;DHT22;8790;53.590;10.002;2022-11-15T10:44:23;9.70;99.90
17346;DHT22;8790;53.590;10.002;2022-11-15T10:47:20;9.70;99.90
17346;DHT22;8790;53.590;10.002;2022-11-15T10:49:55;9.70;99.90
17346;DHT22;8790;53.590;10.002;2022-11-15T10:52:29;9.80;99.90
17346;DHT22;8790;53.590;10.002;2022-11-15T10:55:17;9.80;99.90
17346;DHT22;8790;53.590;10.002;2022-11-15T10:57:54;9.80;99.90
17346;DHT22;8790;53.590;10.002;2022-11-15T11:00:37;9.80;99.90
17346;DHT22;8790;53.590;10.002;2022-11-15T11:03:27;9.90;99.90
17346;DHT22;8790;53.590;10.002;2022-11-15T11:06:08;9.90;99.90
17346;DHT22;8790;53.590;10.002;2022-11-15T11:08:54;9.90;99.90
17346;DHT22;8790;53.590;10.002;2022-11-15T11:11:45;10.00;99.90
17346;DHT22;8790;53.590;10.002;2022-11-15T11:14:21;10.00;99.90
17346;DHT22;8790;53.590;10.002;2022-11-15T11:16:55;10.00;99.90
17346;DHT22;8790;53.590;10.002;2022-11-15T11:19:37;10.00;99.90
17346;DHT22;8790;53.590;10.002;2022-11-15T11:22:18;10.10;99.90
17346;DHT22;8790;53.590;10.002;2022-11-15T11:25:01;10.10;99.90
17346;DHT22;8790;53.590;10.002;2022-11-15T11:27:43;10.10;99.90
17346;DHT22;8790;53.590;10.002;2022-11-15T11:30:20;10.20;99.90
17346;DHT22;8790;53.590;10.002;2022-11-15T11:33:05;10.20;99.90
17346;DHT22;8790;53.590;10.002;2022-11-15T11:35:46;10.20;99.90
17346;DHT22;8790;53.590;10.002;2022-11-15T11:38:35;10.20;99.90
17346;DHT22;8790;53.590;10.002;2022-11-15T11:41:15;10.30;99.90
17346;DHT22;8790;53.590;10.002;2022-11-15T11:43:59;10.30;99.90
17346;DHT22;8790;53.590;10.002;2022-11-15T11:46:47;10.30;99.90
17346;DHT22;8790;53.590;10.002;2022-11-15T11:49:25;10.30;99.90
17346;DHT22;8790;53.590;10.002;2022-11-15T11:52:03;10.40;99.90
17346;DHT22;8790;53.590;10.002;2022-11-15T11:54:43;10.40;99.90
17346;DHT22;8790;53.590;10.002;2022-11-15T11:57:23;10.40;99.90
17346;DHT22;8790;53.590;10.002;2022-11-15T12:00:02;10.40;99.90
17346;DHT22;8790;53.590;10.002;2022-11-15T12:02:49;10.40;99.90
17346;DHT22;8790;53.590;10.002;2022-11-15T12:05:26;10.40;99.90
17346;DHT22;8790;53.590;10.002;2022-11-15T12:08:04;10.50;99.90
17346;DHT22;8790;53.590;10.002;2022-11-15T12:10:41;10.40;99.90
17346;DHT22;8790;53.590;10.002;2022-11-15T12:13:18;10.50;99.90
17346;DHT22;8790;53.590;10.002;2022-11-15T12:16:00;10.50;99.90
17346;DHT22;8790;53.590;10.002;2022-11-15T12:18:36;10.50;99.90
17346;DHT22;8790;53.590;10.002;2022-11-15T12:21:15;10.50;99.90
17346;DHT22;8790;53.590;10.002;2022-11-15T12:23:52;10.60;99.90
17346;DHT22;8790;53.590;10.002;2022-11-15T12:26:27;10.60;99.90
17346;DHT22;8790;53.590;10.002;2022-11-15T12:29:04;10.60;99.90
17346;DHT22;8790;53.590;10.002;2022-11-15T12:31:40;10.70;99.90
17346;DHT22;8790;53.590;10.002;2022-11-15T12:34:35;10.80;99.90
17346;DHT22;8790;53.590;10.002;2022-11-15T12:37:32;10.80;99.90
17346;DHT22;8790;53.590;10.002;2022-11-15T12:40:18;10.80;99.90
17346;DHT22;8790;53.590;10.002;2022-11-15T12:46:05;10.90;99.90
17346;DHT22;8790;53.590;10.002;2022-11-15T12:48:54;10.90;99.90
17346;DHT22;8790;53.590;10.002;2022-11-15T12:57:42;11.00;99.90
17346;DHT22;8790;53.590;10.002;2022-11-15T13:00:45;11.00;99.90
17346;DHT22;8790;53.590;10.002;2022-11-15T13:03:28;11.10;99.90
17346;DHT22;8790;53.590;10.002;2022-11-15T13:06:09;11.10;99.90
17346;DHT22;8790;53.590;10.002;2022-11-15T13:08:44;11.10;99.90
17346;DHT22;8790;53.590;10.002;2022-11-15T13:11:48;11.10;99.90
17346;DHT22;8790;53.590;10.002;2022-11-15T13:14:54;11.10;99.90
17346;DHT22;8790;53.590;10.002;2022-11-15T13:17:32;11.20;99.90
17346;DHT22;8790;53.590;10.002;2022-11-15T13:20:26;11.20;99.90
17346;DHT22;8790;53.590;10.002;2022-11-15T13:23:02;11.20;99.90
17346;DHT22;8790;53.590;10.002;2022-11-15T13:26:08;11.20;99.90
17346;DHT22;8790;53.590;10.002;2022-11-15T13:28:45;11.20;99.90
17346;DHT22;8790;53.590;10.002;2022-11-15T13:31:25;11.20;99.90
17346;DHT22;8790;53.590;10.002;2022-11-15T13:34:01;11.30;99.90
17346;DHT22;8790;53.590;10.002;2022-11-15T13:36:33;11.30;99.90
17346;DHT22;8790;53.590;10.002;2022-11-15T13:39:12;11.30;99.90
17346;DHT22;8790;53.590;10.002;2022-11-15T13:41:47;11.30;99.90
17346;DHT22;8790;53.590;10.002;2022-11-15T13:44:23;11.30;99.90
17346;DHT22;8790;53.590;10.002;2022-11-15T13:47:03;11.30;99.90
17346;DHT22;8790;53.590;10.002;2022-11-15T13:49:35;11.30;99.90
17346;DHT22;8790;53.590;10.002;2022-11-15T13:52:11;11.30;99.90
17346;DHT22;8790;53.590;10.002;2022-11-15T13:54:47;11.30;99.90
17346;DHT22;8790;53.590;10.002;2022-11-15T13:57:23;11.30;99.90
17346;DHT22;8790;53.590;10.002;2022-11-15T14:00:00;11.30;99.90
17346;DHT22;8790;53.590;10.002;2022-11-15T14:02:42;11.30;99.90
17346;DHT22;8790;53.590;10.002;2022-11-15T14:05:16;11.30;99.90
17346;DHT22;8790;53.590;10.002;2022-11-15T14:07:53;11.30;99.90
17346;DHT22;8790;53.590;10.002;2022-11-15T14:10:28;11.30;99.90
17346;DHT22;8790;53.590;10.002;2022-11-15T14:13:01;11.30;99.90
17346;DHT22;8790;53.590;10.002;2022-11-15T14:15:35;11.40;99.90
17346;DHT22;8790;53.590;10.002;2022-11-15T14:18:44;11.40;99.90
17346;DHT22;8790;53.590;10.002;2022-11-15T14:21:17;11.40;99.90
17346;DHT22;8790;53.590;10.002;2022-11-15T14:23:49;11.40;99.90
17346;DHT22;8790;53.590;10.002;2022-11-15T14:26:29;11.40;99.90
17346;DHT22;8790;53.590;10.002;2022-11-15T14:29:22;11.50;99.90
17346;DHT22;8790;53.590;10.002;2022-11-15T14:32:11;11.40;99.90
17346;DHT22;8790;53.590;10.002;2022-11-15T14:34:43;11.40;99.90
17346;DHT22;8790;53.590;10.002;2022-11-15T14:37:21;11.40;99.90
17346;DHT22;8790;53.590;10.002;2022-11-15T14:39:54;11.40;99.90
17346;DHT22;8790;53.590;10.002;2022-11-15T14:42:25;11.40;99.90
17346;DHT22;8790;53.590;10.002;2022-11-15T14:44:57;11.40;99.90
17346;DHT22;8790;53.590;10.002;2022-11-15T14:47:30;11.40;99.90
17346;DHT22;8790;53.590;10.002;2022-11-15T14:50:03;11.40;99.90
17346;DHT22;8790;53.590;10.002;2022-11-15T14:52:34;11.40;99.90
17346;DHT22;8790;53.590;10.002;2022-11-15T14:55:16;11.40;99.90
17346;DHT22;8790;53.590;10.002;2022-11-15T14:57:50;11.40;99.90
17346;DHT22;8790;53.590;10.002;2022-11-15T15:00:22;11.30;99.90
17346;DHT22;8790;53.590;10.002;2022-11-15T15:02:56;11.30;99.90
17346;DHT22;8790;53.590;10.002;2022-11-15T15:05:31;11.40;99.90
17346;DHT22;8790;53.590;10.002;2022-11-15T15:08:04;11.30;99.90
17346;DHT22;8790;53.590;10.002;2022-11-15T15:10:37;11.30;99.90
17346;DHT22;8790;53.590;10.002;2022-11-15T15:13:16;11.30;99.90
17346;DHT22;8790;53.590;10.002;2022-11-15T15:15:49;11.30;99.90
17346;DHT22;8790;53.590;10.002;2022-11-15T15:18:22;11.30;99.90
17346;DHT22;8790;53.590;10.002;2022-11-15T15:20:56;11.30;99.90
17346;DHT22;8790;53.590;10.002;2022-11-15T15:23:30;11.30;99.90
17346;DHT22;8790;53.590;10.002;2022-11-15T15:26:02;11.20;99.90
17346;DHT22;8790;53.590;10.002;2022-11-15T15:28:34;11.20;99.90
17346;DHT22;8790;53.590;10.002;2022-11-15T15:31:06;11.20;99.90
17346;DHT22;8790;53.590;10.002;2022-11-15T15:33:39;11.20;99.90
17346;DHT22;8790;53.590;10.002;2022-11-15T15:36:12;11.20;99.90
17346;DHT22;8790;53.590;10.002;2022-11-15T15:38:44;11.20;99.90
17346;DHT22;8790;53.590;10.002;2022-11-15T15:41:17;11.20;99.90
17346;DHT22;8790;53.590;10.002;2022-11-15T15:43:49;11.20;99.90
17346;DHT22;8790;53.590;10.002;2022-11-15T15:46:20;11.10;99.90
17346;DHT22;8790;53.590;10.002;2022-11-15T15:48:53;11.20;99.90
17346;DHT22;8790;53.590;10.002;2022-11-15T15:51:25;11.10;99.90
17346;DHT22;8790;53.590;10.002;2022-11-15T15:53:57;11.10;99.90
17346;DHT22;8790;53.590;10.002;2022-11-15T15:56:28;11.10;99.90
17346;DHT22;8790;53.590;10.002;2022-11-15T15:59:00;11.10;99.90
17346;DHT22;8790;53.590;10.002;2022-11-15T16:01:32;11.00;99.90
17346;DHT22;8790;53.590;10.002;2022-11-15T16:04:05;11.10;99.90
17346;DHT22;8790;53.590;10.002;2022-11-15T16:06:38;11.00;99.90
17346;DHT22;8790;53.590;10.002;2022-11-15T16:09:13;11.00;99.90
17346;DHT22;8790;53.590;10.002;2022-11-15T16:11:46;11.00;99.90
17346;DHT22;8790;53.590;10.002;2022-11-15T16:14:18;10.90;99.90
17346;DHT22;8790;53.590;10.002;2022-11-15T16:16:49;10.90;99.90
17346;DHT22;8790;53.590;10.002;2022-11-15T16:19:22;10.90;99.90
17346;DHT22;8790;53.590;10.002;2022-11-15T16:21:54;10.90;99.90
17346;DHT22;8790;53.590;10.002;2022-11-15T16:24:26;10.90;99.90
17346;DHT22;8790;53.590;10.002;2022-11-15T16:26:58;10.90;99.90
17346;DHT22;8790;53.590;10.002;2022-11-15T16:29:30;10.90;99.90
17346;DHT22;8790;53.590;10.002;2022-11-15T16:32:01;10.90;99.90
17346;DHT22;8790;53.590;10.002;2022-11-15T16:34:34;11.00;99.90
17346;DHT22;8790;53.590;10.002;2022-11-15T16:37:18;10.90;99.90
17346;DHT22;8790;53.590;10.002;2022-11-15T16:39:51;10.90;99.90
17346;DHT22;8790;53.590;10.002;2022-11-15T16:42:23;10.90;99.90
17346;DHT22;8790;53.590;10.002;2022-11-15T16:44:55;10.90;99.90
17346;DHT22;8790;53.590;10.002;2022-11-15T16:47:26;10.90;99.90
17346;DHT22;8790;53.590;10.002;2022-11-15T16:49:59;10.90;99.90
17346;DHT22;8790;53.590;10.002;2022-11-15T16:52:31;10.90;99.90
17346;DHT22;8790;53.590;10.002;2022-11-15T16:55:03;10.90;99.90
17346;DHT22;8790;53.590;10.002;2022-11-15T16:57:35;10.90;99.90
17346;DHT22;8790;53.590;10.002;2022-11-15T17:00:09;10.90;99.90
17346;DHT22;8790;53.590;10.002;2022-11-15T17:02:42;10.90;99.90
17346;DHT22;8790;53.590;10.002;2022-11-15T17:05:17;10.90;99.90
17346;DHT22;8790;53.590;10.002;2022-11-15T17:07:50;10.90;99.90
17346;DHT22;8790;53.590;10.002;2022-11-15T17:10:24;10.90;99.90
17346;DHT22;8790;53.590;10.002;2022-11-15T17:12:56;10.90;99.90
17346;DHT22;8790;53.590;10.002;2022-11-15T17:15:28;10.90;99.90
17346;DHT22;8790;53.590;10.002;2022-11-15T17:17:59;10.90;99.90
17346;DHT22;8790;53.590;10.002;2022-11-15T17:20:33;10.90;99.90
17346;DHT22;8790;53.590;10.002;2022-11-15T17:23:04;10.90;99.90
17346;DHT22;8790;53.590;10.002;2022-11-15T17:25:41;10.80;99.90
17346;DHT22;8790;53.590;10.002;2022-11-15T17:28:13;10.90;99.90
17346;DHT22;8790;53.590;10.002;2022-11-15T17:30:45;10.90;99.90
17346;DHT22;8790;53.590;10.002;2022-11-15T17:33:16;10.90;99.90
17346;DHT22;8790;53.590;10.002;2022-11-15T17:35:55;10.90;99.90
17346;DHT22;8790;53.590;10.002;2022-11-15T17:38:27;10.80;99.90
17346;DHT22;8790;53.590;10.002;2022-11-15T17:41:00;10.90;99.90
17346;DHT22;8790;53.590;10.002;2022-11-15T17:43:33;10.90;99.90
17346;DHT22;8790;53.590;10.002;2022-11-15T17:46:06;10.90;99.90
17346;DHT22;8790;53.590;10.002;2022-11-15T17:48:38;10.90;99.90